Ottosen, Iowa
Current Conditions -  °F | °C
As of 8:55 PM on Sunday 23 Nov 2014 (Local Time) from KAXA Reporting Station
Overcast Overcast  
Wind Chill: 25°   Ceiling: 6500
Heat Index: 36°   Visibility: 10mi
Dew Point: 30°   Wind: 20mph
Humidity: 81%   Direction: 330°NNW
Pressure: 29.42"   Gusts: 29mph
Location:  42.89°N, 94.38°W
Report Text: KAXA 240255Z AUTO 33017G25KT 10SM FEW020 SCT029 OVC065 02/M01 A2942 RMK AO2
Loading
Personal Weather Stations






























Interactive Weather Map New forecast layout! Learn more

10-Day Weather Forecast

Advertisements
Track Severe Weather on mobile